Time;durP1;ratioP1;P1;durP2;ratioP2;P2;SDS_P1;SDS_P2;PMS_P1;PMS_P2;Temp;Humidity;BMP_temperature;BMP_pressure;BME280_temperature;BME280_humidity;BME280_pressure;Samples;Min_cycle;Max_cycle;Signal;HPM_P1;HPM_P2
2023/03/23 00:01:53;;;;;;;2.60;1.60;;;;;;;;;;4995548;28;20043;-83
2023/03/23 00:04:20;;;;;;;2.78;1.85;;;;;;;;;;4990150;28;20034;-84
2023/03/23 00:06:46;;;;;;;3.70;1.83;;;;;;;;;;4995475;28;20034;-83
2023/03/23 00:09:14;;;;;;;2.70;1.50;;;;;;;;;;4993900;28;20042;-84
2023/03/23 00:11:42;;;;;;;4.22;1.50;;;;;;;;;;4995187;28;20065;-83
2023/03/23 00:14:12;;;;;;;2.58;1.70;;;;;;;;;;4994315;28;20077;-84
2023/03/23 00:16:40;;;;;;;5.40;1.52;;;;;;;;;;4993972;28;20034;-84
2023/03/23 00:19:14;;;;;;;3.28;1.50;;;;;;;;;;4993802;28;20041;-84
2023/03/23 00:21:42;;;;;;;4.78;1.50;;;;;;;;;;5005383;28;20042;-83
2023/03/23 00:24:17;;;;;;;2.28;1.52;;;;;;;;;;4983256;28;20499;-84
2023/03/23 00:26:45;;;;;;;3.50;1.77;;;;;;;;;;5008160;28;20461;-85
2023/03/23 00:29:16;;;;;;;2.78;1.40;;;;;;;;;;4981238;28;20030;-83
2023/03/23 00:31:46;;;;;;;2.83;1.67;;;;;;;;;;5007384;28;20038;-82
2023/03/23 00:34:20;;;;;;;3.35;1.40;;;;;;;;;;4999415;28;20566;-83
2023/03/23 00:36:48;;;;;;;3.35;1.50;;;;;;;;;;5003868;28;20510;-83
2023/03/23 00:39:16;;;;;;;2.78;1.73;;;;;;;;;;5003685;28;20034;-84
2023/03/23 00:41:42;;;;;;;3.78;1.73;;;;;;;;;;5017089;28;20054;-83
2023/03/23 00:44:08;;;;;;;3.58;1.52;;;;;;;;;;5000116;28;20034;-84
2023/03/23 00:46:34;;;;;;;5.97;1.60;;;;;;;;;;4989524;28;20068;-83
2023/03/23 00:48:59;;;;;;;4.32;1.40;;;;;;;;;;5006247;28;20045;-82
2023/03/23 00:51:25;;;;;;;3.00;1.60;;;;;;;;;;5000109;28;20092;-83
2023/03/23 00:53:51;;;;;;;2.60;1.58;;;;;;;;;;4975669;28;20026;-83
2023/03/23 00:56:17;;;;;;;7.00;1.60;;;;;;;;;;4995470;28;20454;-82
2023/03/23 00:58:43;;;;;;;6.13;1.85;;;;;;;;;;4994717;28;20065;-85
2023/03/23 01:01:09;;;;;;;5.97;1.73;;;;;;;;;;4994248;28;20034;-83
2023/03/23 01:03:35;;;;;;;3.05;1.67;;;;;;;;;;4975841;28;20042;-85
2023/03/23 01:06:12;;;;;;;4.75;1.60;;;;;;;;;;4992063;28;20034;-84
2023/03/23 01:08:44;;;;;;;3.22;1.67;;;;;;;;;;4994618;28;20049;-83
2023/03/23 01:11:15;;;;;;;3.50;1.45;;;;;;;;;;4994715;28;20038;-84
2023/03/23 01:13:43;;;;;;;5.22;1.63;;;;;;;;;;4977112;28;20049;-83
2023/03/23 01:16:10;;;;;;;2.00;1.50;;;;;;;;;;4995983;28;20046;-84
2023/03/23 01:18:36;;;;;;;3.60;1.60;;;;;;;;;;4996582;28;20069;-83
2023/03/23 01:21:15;;;;;;;3.45;1.50;;;;;;;;;;4994970;28;20039;-84
2023/03/23 01:23:40;;;;;;;2.20;1.67;;;;;;;;;;4995945;28;20085;-83
2023/03/23 01:26:09;;;;;;;2.05;1.70;;;;;;;;;;4995911;28;20038;-83
2023/03/23 01:28:36;;;;;;;5.45;1.70;;;;;;;;;;4997670;28;20047;-83
2023/03/23 01:31:05;;;;;;;6.03;1.70;;;;;;;;;;4989827;28;20113;-84
2023/03/23 01:33:31;;;;;;;2.90;1.60;;;;;;;;;;4986766;28;20085;-83
2023/03/23 01:36:01;;;;;;;2.95;1.50;;;;;;;;;;4993982;28;20044;-83
2023/03/23 01:38:27;;;;;;;3.90;1.70;;;;;;;;;;4992821;28;20034;-83
2023/03/23 01:40:53;;;;;;;2.92;1.50;;;;;;;;;;4992927;28;20479;-84
2023/03/23 01:43:18;;;;;;;6.20;1.85;;;;;;;;;;4992899;28;20149;-84
2023/03/23 01:45:44;;;;;;;5.10;1.60;;;;;;;;;;5020232;28;20141;-84
2023/03/23 01:48:16;;;;;;;3.00;1.55;;;;;;;;;;4999751;28;20042;-83
2023/03/23 01:50:54;;;;;;;2.30;1.63;;;;;;;;;;5020187;28;20038;-84
2023/03/23 01:53:22;;;;;;;3.35;1.65;;;;;;;;;;5008758;28;20049;-83
2023/03/23 01:55:50;;;;;;;2.72;1.50;;;;;;;;;;4987844;28;20638;-84
2023/03/23 01:58:21;;;;;;;2.13;1.60;;;;;;;;;;4994836;28;20030;-82
2023/03/23 02:00:47;;;;;;;2.60;1.50;;;;;;;;;;4984679;28;20049;-83
2023/03/23 02:03:15;;;;;;;2.92;1.60;;;;;;;;;;4977093;28;20046;-83
2023/03/23 02:05:42;;;;;;;2.90;1.70;;;;;;;;;;4991280;28;20037;-84
2023/03/23 02:08:18;;;;;;;2.65;1.60;;;;;;;;;;4998440;28;20034;-84
2023/03/23 02:10:45;;;;;;;3.25;1.70;;;;;;;;;;5014012;28;20414;-84
2023/03/23 02:13:12;;;;;;;3.90;1.60;;;;;;;;;;4999330;28;20376;-84
2023/03/23 02:15:52;;;;;;;3.17;1.70;;;;;;;;;;4998386;28;20096;-84
2023/03/23 02:18:27;;;;;;;2.97;1.70;;;;;;;;;;4994784;28;20026;-82
2023/03/23 02:21:08;;;;;;;3.67;1.50;;;;;;;;;;4996727;28;20042;-85
2023/03/23 02:23:53;;;;;;;2.65;1.70;;;;;;;;;;4995377;28;20041;-83
2023/03/23 02:26:37;;;;;;;2.67;1.70;;;;;;;;;;4996141;28;20034;-82
2023/03/23 02:29:03;;;;;;;;;;;;;;;;;;4997824;28;20092;-82
2023/03/23 02:31:55;;;;;;;3.15;1.55;;;;;;;;;;4976416;28;20330;-83
2023/03/23 02:34:27;;;;;;;3.63;1.58;;;;;;;;;;4978011;28;20034;-84
2023/03/23 02:37:19;;;;;;;2.55;1.40;;;;;;;;;;4995352;28;20076;-83
2023/03/23 02:39:51;;;;;;;4.97;1.90;;;;;;;;;;5011396;28;20054;-83
2023/03/23 02:42:22;;;;;;;3.35;1.63;;;;;;;;;;4991991;28;20038;-82
2023/03/23 02:44:50;;;;;;;4.97;1.67;;;;;;;;;;5010731;28;20506;-81
2023/03/23 02:47:26;;;;;;;2.42;1.42;;;;;;;;;;4993721;28;20070;-82
2023/03/23 02:49:55;;;;;;;3.25;1.70;;;;;;;;;;4984343;28;20035;-83
2023/03/23 02:52:24;;;;;;;3.25;1.60;;;;;;;;;;5001790;28;20092;-84
2023/03/23 02:54:53;;;;;;;3.20;1.70;;;;;;;;;;4990348;28;20026;-84
2023/03/23 02:57:20;;;;;;;2.35;1.65;;;;;;;;;;4992854;28;20045;-83
2023/03/23 02:59:46;;;;;;;6.63;1.83;;;;;;;;;;4998991;28;20049;-84
2023/03/23 03:02:23;;;;;;;3.60;1.83;;;;;;;;;;4999518;28;20042;-84
2023/03/23 03:05:27;;;;;;;4.25;1.80;;;;;;;;;;4997064;28;20046;-84
2023/03/23 03:08:08;;;;;;;;;;;;;;;;;;4988498;28;20069;-81
2023/03/23 03:10:54;;;;;;;3.13;1.40;;;;;;;;;;4999260;28;19914;-87
2023/03/23 03:13:26;;;;;;;2.45;1.67;;;;;;;;;;5020467;28;20062;-86
2023/03/23 03:15:55;;;;;;;4.78;1.63;;;;;;;;;;5006596;28;20114;-87
2023/03/23 03:18:33;;;;;;;5.18;1.75;;;;;;;;;;4985733;28;20030;-85
2023/03/23 03:21:06;;;;;;;2.83;1.38;;;;;;;;;;5006639;28;20034;-87
2023/03/23 03:23:34;;;;;;;2.75;1.70;;;;;;;;;;5003659;28;20098;-85
2023/03/23 03:26:04;;;;;;;3.42;1.70;;;;;;;;;;5006109;28;20045;-87
2023/03/23 03:28:47;;;;;;;6.85;1.70;;;;;;;;;;4991952;28;20039;-86
2023/03/23 03:31:17;;;;;;;2.90;1.77;;;;;;;;;;5006234;28;20115;-87
2023/03/23 03:33:43;;;;;;;3.22;1.77;;;;;;;;;;4999210;28;20031;-87
2023/03/23 03:36:15;;;;;;;3.63;1.63;;;;;;;;;;4996434;28;20045;-87
2023/03/23 03:38:46;;;;;;;2.90;1.85;;;;;;;;;;5005968;28;20048;-86
2023/03/23 03:41:13;;;;;;;4.93;1.60;;;;;;;;;;5003677;28;20034;-85
2023/03/23 03:43:38;;;;;;;2.53;1.70;;;;;;;;;;5005698;28;20064;-85
2023/03/23 03:46:04;;;;;;;2.80;1.67;;;;;;;;;;5006314;28;20057;-86
2023/03/23 03:48:31;;;;;;;4.00;1.80;;;;;;;;;;5003235;28;20098;-83
2023/03/23 03:50:57;;;;;;;4.30;2.00;;;;;;;;;;5008680;28;20039;-87
2023/03/23 03:53:30;;;;;;;2.08;1.52;;;;;;;;;;5005488;28;20034;-85
2023/03/23 03:55:56;;;;;;;;;;;;;;;;;;5021555;28;20042;-84
2023/03/23 03:58:22;;;;;;;2.60;1.42;;;;;;;;;;5007227;28;19913;-86
2023/03/23 04:01:07;;;;;;;4.63;1.77;;;;;;;;;;5008998;28;20560;-86
2023/03/23 04:03:37;;;;;;;2.97;1.73;;;;;;;;;;4992841;28;20034;-86
2023/03/23 04:06:09;;;;;;;2.85;1.63;;;;;;;;;;4980217;28;20042;-86
2023/03/23 04:08:37;;;;;;;2.90;1.90;;;;;;;;;;5008240;28;20038;-86
2023/03/23 04:11:04;;;;;;;3.67;1.90;;;;;;;;;;5015639;28;20069;-84
2023/03/23 04:13:31;;;;;;;3.42;1.80;;;;;;;;;;4980999;28;20038;-86
2023/03/23 04:16:16;;;;;;;2.50;1.60;;;;;;;;;;5013153;28;20052;-84
2023/03/23 04:18:43;;;;;;;4.57;1.80;;;;;;;;;;5008645;28;20121;-87
2023/03/23 04:21:09;;;;;;;4.38;1.55;;;;;;;;;;5008929;28;20030;-85
2023/03/23 04:23:35;;;;;;;2.33;1.55;;;;;;;;;;5025088;28;20045;-86
2023/03/23 04:26:03;;;;;;;2.40;1.80;;;;;;;;;;5023626;28;20035;-86
2023/03/23 04:28:35;;;;;;;3.80;1.65;;;;;;;;;;5001158;28;20065;-86
2023/03/23 04:31:19;;;;;;;2.97;1.75;;;;;;;;;;5020793;28;20049;-87
2023/03/23 04:33:52;;;;;;;2.65;1.90;;;;;;;;;;5007368;28;20059;-85
2023/03/23 04:36:22;;;;;;;3.67;1.80;;;;;;;;;;5007584;28;20034;-85
2023/03/23 04:38:56;;;;;;;2.60;1.70;;;;;;;;;;5008949;28;20094;-87
2023/03/23 04:41:24;;;;;;;3.22;1.80;;;;;;;;;;5008588;28;20037;-85
2023/03/23 04:44:10;;;;;;;3.45;1.95;;;;;;;;;;5008042;28;20106;-83
2023/03/23 04:46:45;;;;;;;5.32;1.98;;;;;;;;;;5003792;28;20102;-86
2023/03/23 04:49:14;;;;;;;6.03;2.20;;;;;;;;;;4982731;28;20069;-84
2023/03/23 04:51:39;;;;;;;4.15;2.00;;;;;;;;;;5001407;28;20042;-86
2023/03/23 04:54:16;;;;;;;2.67;1.70;;;;;;;;;;4980336;28;20031;-85
2023/03/23 04:56:47;;;;;;;3.47;1.80;;;;;;;;;;5035228;23;20080;-84
2023/03/23 04:59:14;;;;;;;3.78;1.90;;;;;;;;;;5022849;28;20034;-83
2023/03/23 05:02:02;;;;;;;4.55;2.35;;;;;;;;;;5057017;28;20037;-83
2023/03/23 05:04:29;;;;;;;3.47;2.13;;;;;;;;;;5040092;28;20063;-84
2023/03/23 05:07:04;;;;;;;2.97;1.80;;;;;;;;;;5039262;28;20033;-83
2023/03/23 05:09:32;;;;;;;6.13;1.90;;;;;;;;;;5054330;28;20029;-83
2023/03/23 05:11:59;;;;;;;3.85;1.85;;;;;;;;;;5055741;28;20084;-83
2023/03/23 05:14:26;;;;;;;3.63;1.85;;;;;;;;;;5029709;28;20116;-83
2023/03/23 05:17:01;;;;;;;6.82;1.88;;;;;;;;;;5055186;28;20028;-83
2023/03/23 05:19:27;;;;;;;4.90;1.90;;;;;;;;;;5038899;28;20044;-83
2023/03/23 05:22:02;;;;;;;3.90;2.03;;;;;;;;;;5037032;28;20057;-83
2023/03/23 05:24:33;;;;;;;9.75;4.60;;;;;;;;;;5038944;28;20049;-83
2023/03/23 05:27:03;;;;;;;16.87;8.90;;;;;;;;;;5038222;28;20037;-83
2023/03/23 05:29:33;;;;;;;2.58;1.95;;;;;;;;;;5041197;28;20295;-83
2023/03/23 05:32:00;;;;;;;3.50;2.00;;;;;;;;;;5019349;28;20080;-83
2023/03/23 05:34:28;;;;;;;2.97;1.80;;;;;;;;;;5031680;28;20080;-82
2023/03/23 05:36:57;;;;;;;3.88;1.80;;;;;;;;;;5044911;28;20057;-82
2023/03/23 05:39:46;;;;;;;4.45;1.83;;;;;;;;;;5032629;28;20041;-83
2023/03/23 05:42:17;;;;;;;3.28;2.00;;;;;;;;;;5026278;28;20038;-82
2023/03/23 05:45:05;;;;;;;4.82;2.20;;;;;;;;;;5054925;28;20030;-82
2023/03/23 05:47:31;;;;;;;5.53;2.30;;;;;;;;;;5037502;28;20539;-84
2023/03/23 05:50:05;;;;;;;4.03;2.15;;;;;;;;;;5038745;28;20041;-83
2023/03/23 05:52:35;;;;;;;4.45;2.30;;;;;;;;;;5055275;28;20065;-83
2023/03/23 05:55:01;;;;;;;24.40;10.35;;;;;;;;;;5057919;28;20101;-84
2023/03/23 05:57:27;;;;;;;6.03;3.30;;;;;;;;;;5038024;28;20051;-83
2023/03/23 06:00:19;;;;;;;5.63;2.63;;;;;;;;;;5055629;28;20502;-83
2023/03/23 06:02:48;;;;;;;3.72;2.28;;;;;;;;;;5032739;28;20440;-83
2023/03/23 06:05:20;;;;;;;;;;;;;;;;;;5024295;28;20039;-83
2023/03/23 06:07:52;;;;;;;5.88;2.90;;;;;;;;;;5040223;28;19927;-82
2023/03/23 06:10:17;;;;;;;3.38;2.05;;;;;;;;;;5040667;28;20493;-83
2023/03/23 06:12:51;;;;;;;4.30;1.90;;;;;;;;;;5021882;28;20104;-83
2023/03/23 06:15:17;;;;;;;2.83;2.10;;;;;;;;;;5042550;28;20052;-83
2023/03/23 06:18:03;;;;;;;2.80;2.00;;;;;;;;;;5041819;28;20068;-83
2023/03/23 06:20:36;;;;;;;3.10;2.22;;;;;;;;;;5053908;28;20507;-83
2023/03/23 06:23:15;;;;;;;5.18;2.15;;;;;;;;;;5038956;28;20079;-83
2023/03/23 06:25:42;;;;;;;4.35;2.30;;;;;;;;;;5056025;28;20069;-83
2023/03/23 06:28:10;;;;;;;5.35;2.00;;;;;;;;;;5053894;28;20030;-81
2023/03/23 06:30:40;;;;;;;3.53;2.10;;;;;;;;;;5055250;28;20033;-82
2023/03/23 06:33:09;;;;;;;5.15;2.08;;;;;;;;;;5054269;28;20460;-83
2023/03/23 06:35:56;;;;;;;4.93;1.98;;;;;;;;;;5031659;28;20064;-82
2023/03/23 06:38:35;;;;;;;2.97;1.90;;;;;;;;;;5038297;28;20052;-82
2023/03/23 06:41:01;;;;;;;3.97;1.90;;;;;;;;;;5054626;28;20512;-82
2023/03/23 06:43:29;;;;;;;2.97;1.80;;;;;;;;;;5054928;28;20025;-84
2023/03/23 06:46:17;;;;;;;2.97;1.80;;;;;;;;;;5042507;28;20444;-81
2023/03/23 06:48:45;;;;;;;3.15;1.88;;;;;;;;;;5044619;28;20069;-81
2023/03/23 06:51:17;;;;;;;2.83;1.63;;;;;;;;;;5042575;28;20441;-81
2023/03/23 06:53:47;;;;;;;3.05;1.88;;;;;;;;;;5034426;28;20030;-82
2023/03/23 06:56:13;;;;;;;4.32;1.90;;;;;;;;;;5041246;28;20516;-84
2023/03/23 06:58:45;;;;;;;4.47;1.90;;;;;;;;;;5038809;28;20023;-84
2023/03/23 07:01:11;;;;;;;2.88;1.85;;;;;;;;;;5042026;28;20541;-82
2023/03/23 07:03:45;;;;;;;4.55;1.77;;;;;;;;;;5055494;28;20201;-82
2023/03/23 07:06:12;;;;;;;2.17;1.63;;;;;;;;;;5044751;28;20093;-82
2023/03/23 07:08:46;;;;;;;3.97;1.70;;;;;;;;;;5042819;28;20028;-82
2023/03/23 07:11:17;;;;;;;2.53;1.80;;;;;;;;;;5028419;28;20033;-82
2023/03/23 07:13:42;;;;;;;3.33;1.90;;;;;;;;;;5045367;28;20041;-82
2023/03/23 07:16:09;;;;;;;3.55;1.77;;;;;;;;;;5042135;28;20478;-82
2023/03/23 07:18:34;;;;;;;4.07;2.15;;;;;;;;;;5058967;28;20076;-82
2023/03/23 07:21:02;;;;;;;3.67;1.90;;;;;;;;;;5043938;28;20040;-83
2023/03/23 07:23:30;;;;;;;2.35;1.70;;;;;;;;;;5044913;28;20033;-83
2023/03/23 07:26:03;;;;;;;3.35;2.05;;;;;;;;;;5045618;28;20386;-84
2023/03/23 07:28:37;;;;;;;2.40;1.80;;;;;;;;;;5045641;28;20119;-83
2023/03/23 07:31:17;;;;;;;4.10;1.90;;;;;;;;;;5042727;28;20091;-83
2023/03/23 07:33:43;;;;;;;6.82;1.98;;;;;;;;;;5048604;28;20041;-82
2023/03/23 07:36:10;;;;;;;4.38;1.90;;;;;;;;;;5038013;28;20030;-82
2023/03/23 07:38:36;;;;;;;4.05;1.92;;;;;;;;;;5041818;28;20029;-83
2023/03/23 07:41:02;;;;;;;3.67;1.77;;;;;;;;;;5041690;28;20042;-82
2023/03/23 07:43:30;;;;;;;3.40;1.70;;;;;;;;;;5030514;28;20029;-84
2023/03/23 07:45:58;;;;;;;7.88;2.00;;;;;;;;;;5043188;28;20073;-84
2023/03/23 07:48:30;;;;;;;3.72;1.73;;;;;;;;;;5042157;28;20037;-82
2023/03/23 07:50:55;;;;;;;4.05;2.13;;;;;;;;;;5043831;28;20093;-83
2023/03/23 07:53:23;;;;;;;7.97;1.90;;;;;;;;;;5059124;28;20037;-84
2023/03/23 07:55:57;;;;;;;2.08;1.65;;;;;;;;;;5026542;28;20029;-81
2023/03/23 07:58:46;;;;;;;3.63;1.70;;;;;;;;;;5058489;28;20053;-83
2023/03/23 08:01:13;;;;;;;2.17;1.50;;;;;;;;;;5058618;28;20029;-82
2023/03/23 08:03:40;;;;;;;5.70;1.95;;;;;;;;;;5042406;28;20029;-80
2023/03/23 08:06:16;;;;;;;3.38;1.85;;;;;;;;;;5056707;28;20022;-82
2023/03/23 08:08:55;;;;;;;3.75;1.90;;;;;;;;;;5034899;28;20053;-82
2023/03/23 08:11:39;;;;;;;5.57;1.80;;;;;;;;;;5042425;28;20478;-82
2023/03/23 08:14:28;;;;;;;3.88;2.00;;;;;;;;;;5039745;28;20084;-83
2023/03/23 08:17:12;;;;;;;3.92;1.88;;;;;;;;;;5035649;28;20063;-83
2023/03/23 08:19:56;;;;;;;8.38;1.83;;;;;;;;;;5036105;28;20068;-83
2023/03/23 08:22:48;;;;;;;3.22;1.80;;;;;;;;;;5016056;28;20042;-83
2023/03/23 08:25:42;;;;;;;9.30;2.00;;;;;;;;;;5006503;28;20042;-80
2023/03/23 08:28:16;;;;;;;6.35;2.00;;;;;;;;;;5038120;28;20088;-83
2023/03/23 08:31:07;;;;;;;7.07;2.20;;;;;;;;;;5035974;28;20460;-81
2023/03/23 08:33:45;;;;;;;;;;;;;;;;;;5038469;28;20060;-86
2023/03/23 08:36:29;;;;;;;;;;;;;;;;;;5033447;28;20038;-84
2023/03/23 08:39:17;;;;;;;4.65;2.20;;;;;;;;;;5037533;28;19936;-85
2023/03/23 08:42:02;;;;;;;3.15;1.80;;;;;;;;;;5038571;28;20037;-83
2023/03/23 08:44:46;;;;;;;4.68;1.88;;;;;;;;;;5041015;28;20103;-84
2023/03/23 08:47:44;;;;;;;5.45;2.10;;;;;;;;;;5056826;28;20034;-83
2023/03/23 08:50:15;;;;;;;4.90;2.13;;;;;;;;;;5047169;28;20034;-83
2023/03/23 08:53:10;;;;;;;6.88;2.50;;;;;;;;;;5037544;28;20041;-83
2023/03/23 08:55:50;;;;;;;4.93;2.05;;;;;;;;;;5042532;28;20041;-82
2023/03/23 08:58:22;;;;;;;4.22;2.35;;;;;;;;;;5042937;28;20064;-83
2023/03/23 09:01:07;;;;;;;3.72;2.35;;;;;;;;;;5040617;28;20045;-83
2023/03/23 09:03:52;;;;;;;3.85;2.17;;;;;;;;;;5042439;28;20037;-83
2023/03/23 09:06:36;;;;;;;;;;;;;;;;;;5057562;28;20033;-82
2023/03/23 09:09:06;;;;;;;6.80;1.95;;;;;;;;;;5040879;28;19923;-82
2023/03/23 09:11:35;;;;;;;5.32;2.20;;;;;;;;;;5056092;28;20037;-84
2023/03/23 09:14:03;;;;;;;6.07;2.40;;;;;;;;;;5026834;28;20030;-84
2023/03/23 09:16:29;;;;;;;5.63;2.50;;;;;;;;;;5040725;28;20022;-83
2023/03/23 09:18:56;;;;;;;5.03;2.40;;;;;;;;;;5040175;28;20432;-82
2023/03/23 09:21:23;;;;;;;9.82;2.10;;;;;;;;;;5039985;28;20033;-83
2023/03/23 09:23:49;;;;;;;4.85;2.20;;;;;;;;;;5041676;28;20041;-81
2023/03/23 09:26:15;;;;;;;4.72;2.30;;;;;;;;;;5040166;28;20075;-82
2023/03/23 09:28:40;;;;;;;6.82;2.60;;;;;;;;;;5042086;28;20108;-81
2023/03/23 09:31:06;;;;;;;8.80;2.60;;;;;;;;;;5056984;28;20041;-83
2023/03/23 09:33:34;;;;;;;3.63;2.20;;;;;;;;;;5041052;28;20061;-82
2023/03/23 09:36:04;;;;;;;6.40;2.40;;;;;;;;;;5041574;28;20029;-83
2023/03/23 09:38:34;;;;;;;5.32;2.30;;;;;;;;;;5056714;28;20113;-83
2023/03/23 09:41:24;;;;;;;4.72;2.22;;;;;;;;;;5042974;28;20057;-82
2023/03/23 09:43:53;;;;;;;4.18;2.30;;;;;;;;;;5039155;28;20052;-82
2023/03/23 09:46:41;;;;;;;6.50;2.30;;;;;;;;;;5056356;28;20037;-82
2023/03/23 09:49:28;;;;;;;4.13;2.42;;;;;;;;;;5037726;28;20378;-82
2023/03/23 09:51:59;;;;;;;5.00;2.40;;;;;;;;;;5040979;28;20482;-82
2023/03/23 09:54:37;;;;;;;4.95;2.30;;;;;;;;;;5037609;28;20124;-81
2023/03/23 09:57:04;;;;;;;4.65;2.00;;;;;;;;;;5036798;28;20044;-83
2023/03/23 09:59:30;;;;;;;5.72;2.20;;;;;;;;;;5033026;28;20029;-83
2023/03/23 10:02:10;;;;;;;4.05;2.25;;;;;;;;;;5052916;28;20052;-83
2023/03/23 10:04:54;;;;;;;7.72;2.10;;;;;;;;;;5017500;28;20045;-82
2023/03/23 10:07:22;;;;;;;4.50;2.08;;;;;;;;;;5036213;28;20037;-81
2023/03/23 10:09:51;;;;;;;4.25;1.85;;;;;;;;;;5036432;28;20124;-83
2023/03/23 10:12:35;;;;;;;4.50;2.30;;;;;;;;;;5019248;28;20068;-85
2023/03/23 10:15:10;;;;;;;2.90;1.98;;;;;;;;;;5033272;28;20033;-86
2023/03/23 10:17:59;;;;;;;5.25;2.03;;;;;;;;;;5038469;28;20072;-85
2023/03/23 10:20:36;;;;;;;8.05;2.20;;;;;;;;;;5056074;28;20060;-84
2023/03/23 10:23:14;;;;;;;4.82;2.10;;;;;;;;;;5033169;28;20033;-86
2023/03/23 10:25:52;;;;;;;2.95;2.05;;;;;;;;;;5029151;28;20041;-84
2023/03/23 10:28:21;;;;;;;3.97;2.28;;;;;;;;;;5035898;28;20410;-85
2023/03/23 10:30:55;;;;;;;4.32;2.33;;;;;;;;;;5035631;28;20025;-85
2023/03/23 10:33:34;;;;;;;11.13;2.47;;;;;;;;;;5033267;28;20063;-84
2023/03/23 10:36:07;;;;;;;9.13;2.50;;;;;;;;;;5036734;28;20051;-84
2023/03/23 10:38:34;;;;;;;44.63;4.40;;;;;;;;;;5036739;28;20033;-84
2023/03/23 10:41:06;;;;;;;5.20;2.22;;;;;;;;;;5038396;28;20070;-83
2023/03/23 10:43:33;;;;;;;3.60;2.30;;;;;;;;;;5042905;28;20041;-84
2023/03/23 10:46:16;;;;;;;3.83;2.22;;;;;;;;;;5061136;28;20055;-85
2023/03/23 10:48:48;;;;;;;;;;;;;;;;;;5059883;28;20042;-86
2023/03/23 10:51:17;;;;;;;4.47;2.45;;;;;;;;;;5011595;28;19917;-86
2023/03/23 10:53:49;;;;;;;3.95;2.30;;;;;;;;;;5044316;28;20042;-86
2023/03/23 10:56:42;;;;;;;4.75;2.08;;;;;;;;;;5041542;28;20485;-86
2023/03/23 10:59:27;;;;;;;3.80;2.50;;;;;;;;;;5053183;23;20053;-86
2023/03/23 11:01:58;;;;;;;6.25;2.30;;;;;;;;;;5027550;28;20056;-86
2023/03/23 11:04:23;;;;;;;4.97;2.40;;;;;;;;;;5032192;28;20061;-85
2023/03/23 11:06:52;;;;;;;3.50;2.17;;;;;;;;;;5035104;28;20049;-85
2023/03/23 11:09:21;;;;;;;6.40;2.20;;;;;;;;;;5034085;28;20041;-83
2023/03/23 11:11:51;;;;;;;2.97;2.17;;;;;;;;;;5034574;28;20029;-84
2023/03/23 11:14:24;;;;;;;5.45;2.10;;;;;;;;;;5034278;28;20037;-87
2023/03/23 11:16:58;;;;;;;3.83;2.33;;;;;;;;;;5024506;28;20102;-85
2023/03/23 11:19:29;;;;;;;3.42;2.30;;;;;;;;;;5033616;28;20033;-85
2023/03/23 11:22:06;;;;;;;4.35;2.25;;;;;;;;;;5032567;28;20421;-90
2023/03/23 11:24:34;;;;;;;3.60;2.30;;;;;;;;;;5031586;28;20045;-87
2023/03/23 11:27:02;;;;;;;4.18;2.30;;;;;;;;;;5031564;28;20037;-85
2023/03/23 11:29:30;;;;;;;3.05;2.20;;;;;;;;;;5032731;28;20497;-88
2023/03/23 11:31:59;;;;;;;3.78;1.95;;;;;;;;;;5032332;28;20037;-84
2023/03/23 11:34:30;;;;;;;3.05;1.92;;;;;;;;;;5031731;28;20029;-86
2023/03/23 11:37:07;;;;;;;4.32;2.40;;;;;;;;;;5047141;28;20060;-87
2023/03/23 11:39:57;;;;;;;5.18;2.63;;;;;;;;;;5042662;28;20546;-86
2023/03/23 11:42:28;;;;;;;3.13;2.20;;;;;;;;;;5024545;28;20052;-86
2023/03/23 11:44:54;;;;;;;2.83;1.92;;;;;;;;;;5031977;28;20029;-85
2023/03/23 11:47:37;;;;;;;3.70;2.28;;;;;;;;;;5033555;28;20037;-85
2023/03/23 11:50:27;;;;;;;3.38;2.20;;;;;;;;;;5033671;28;20052;-84
2023/03/23 11:53:07;;;;;;;3.20;2.10;;;;;;;;;;5033774;28;20496;-85
2023/03/23 11:55:45;;;;;;;4.85;2.25;;;;;;;;;;5041423;28;20080;-85
2023/03/23 11:58:16;;;;;;;7.85;2.33;;;;;;;;;;5032858;28;20049;-86
2023/03/23 12:01:06;;;;;;;4.82;3.10;;;;;;;;;;5028129;28;20029;-86
2023/03/23 12:03:51;;;;;;;4.82;2.30;;;;;;;;;;5023909;28;20046;-87
2023/03/23 12:06:26;;;;;;;3.67;2.25;;;;;;;;;;5030674;28;20044;-86
2023/03/23 12:09:36;;;;;;;5.15;1.90;;;;;;;;;;5032608;28;20500;-84
2023/03/23 12:12:16;;;;;;;3.72;2.00;;;;;;;;;;4955946;28;20057;-84
2023/03/23 12:15:22;;;;;;;3.20;1.73;;;;;;;;;;5028361;28;20136;-85
2023/03/23 12:18:22;;;;;;;5.75;2.05;;;;;;;;;;5033501;28;20045;-84
2023/03/23 12:20:48;;;;;;;3.85;2.28;;;;;;;;;;5036291;28;20095;-84
2023/03/23 12:23:22;;;;;;;3.25;2.10;;;;;;;;;;5035565;28;20558;-86
2023/03/23 12:25:55;;;;;;;5.90;2.40;;;;;;;;;;5037221;28;20091;-85
2023/03/23 12:28:41;;;;;;;3.53;2.08;;;;;;;;;;5035233;28;20076;-84
2023/03/23 12:31:36;;;;;;;5.72;2.30;;;;;;;;;;5053963;28;20033;-87
2023/03/23 12:34:37;;;;;;;4.68;2.60;;;;;;;;;;5043190;28;20054;-86
2023/03/23 12:37:27;;;;;;;4.88;2.47;;;;;;;;;;4979753;28;20513;-86
2023/03/23 12:40:17;;;;;;;3.70;2.65;;;;;;;;;;5035289;28;20299;-86
2023/03/23 12:43:03;;;;;;;4.38;2.50;;;;;;;;;;5036038;28;20096;-86
2023/03/23 12:45:51;;;;;;;5.25;2.47;;;;;;;;;;5034206;28;20048;-84
2023/03/23 12:48:24;;;;;;;5.00;2.80;;;;;;;;;;5034394;28;20119;-86
2023/03/23 12:50:59;;;;;;;4.25;2.10;;;;;;;;;;5061008;28;20037;-87
2023/03/23 12:53:33;;;;;;;4.38;2.40;;;;;;;;;;5037645;28;20041;-87
2023/03/23 12:56:20;;;;;;;5.45;2.50;;;;;;;;;;5022349;28;20092;-84
2023/03/23 12:58:49;;;;;;;5.63;2.67;;;;;;;;;;5037355;28;20110;-86
2023/03/23 13:01:25;;;;;;;5.35;2.55;;;;;;;;;;5034034;28;20056;-83
2023/03/23 13:04:13;;;;;;;3.80;2.42;;;;;;;;;;5035606;28;20552;-83
2023/03/23 13:06:42;;;;;;;3.15;2.05;;;;;;;;;;5036136;28;20037;-82
2023/03/23 13:09:38;;;;;;;6.72;2.20;;;;;;;;;;5035033;28;20026;-86
2023/03/23 13:12:08;;;;;;;4.97;2.17;;;;;;;;;;5038570;28;20041;-86
2023/03/23 13:14:40;;;;;;;4.18;2.50;;;;;;;;;;5039760;28;20167;-86
2023/03/23 13:17:18;;;;;;;4.53;2.60;;;;;;;;;;5038002;28;20565;-85
2023/03/23 13:19:59;;;;;;;5.63;2.40;;;;;;;;;;5036439;28;20100;-87
2023/03/23 13:22:51;;;;;;;3.00;1.90;;;;;;;;;;5035417;28;20105;-86
2023/03/23 13:25:49;;;;;;;4.40;2.45;;;;;;;;;;5034821;28;20059;-84
2023/03/23 13:28:28;;;;;;;4.82;3.05;;;;;;;;;;5035862;28;20124;-86
2023/03/23 13:31:03;;;;;;;5.68;2.88;;;;;;;;;;5034811;28;20041;-84
2023/03/23 13:33:35;;;;;;;4.30;2.40;;;;;;;;;;5036372;28;20038;-88
2023/03/23 13:36:13;;;;;;;6.20;2.78;;;;;;;;;;5036749;28;20041;-86
2023/03/23 13:38:44;;;;;;;5.97;3.05;;;;;;;;;;5035905;28;20136;-83
2023/03/23 13:41:13;;;;;;;5.13;2.80;;;;;;;;;;5036826;28;20038;-83
2023/03/23 13:43:40;;;;;;;4.80;3.03;;;;;;;;;;5043592;28;20022;-86
2023/03/23 13:46:18;;;;;;;5.70;2.97;;;;;;;;;;5036084;28;20045;-84
2023/03/23 13:48:51;;;;;;;4.60;2.53;;;;;;;;;;5033362;28;20409;-84
2023/03/23 13:51:43;;;;;;;4.88;2.70;;;;;;;;;;5032917;28;20037;-83
2023/03/23 13:54:38;;;;;;;4.43;2.50;;;;;;;;;;5018154;28;20053;-84
2023/03/23 13:57:40;;;;;;;4.63;2.20;;;;;;;;;;5031464;28;20029;-85
2023/03/23 14:00:32;;;;;;;5.57;2.20;;;;;;;;;;5016685;28;20529;-82
2023/03/23 14:03:05;;;;;;;;;;;;;;;;;;5021009;28;20084;-83
2023/03/23 14:05:38;;;;;;;7.53;2.70;;;;;;;;;;5033794;28;20412;-85
2023/03/23 14:08:13;;;;;;;7.13;2.65;;;;;;;;;;5034396;28;20032;-86
2023/03/23 14:10:48;;;;;;;3.35;2.47;;;;;;;;;;5033640;28;20481;-86
2023/03/23 14:13:49;;;;;;;5.80;2.80;;;;;;;;;;5029018;28;20108;-86
2023/03/23 14:16:15;;;;;;;4.07;2.90;;;;;;;;;;5015153;28;20048;-85
2023/03/23 14:18:42;;;;;;;5.88;3.40;;;;;;;;;;5036005;28;20022;-86
2023/03/23 14:21:23;;;;;;;5.50;3.42;;;;;;;;;;5035149;28;20034;-84
2023/03/23 14:23:49;;;;;;;7.00;3.60;;;;;;;;;;5035561;28;20036;-85
2023/03/23 14:26:20;;;;;;;6.35;3.67;;;;;;;;;;5034144;28;20111;-86
2023/03/23 14:28:51;;;;;;;10.50;3.95;;;;;;;;;;5034732;28;20044;-85
2023/03/23 14:31:28;;;;;;;9.02;3.60;;;;;;;;;;5033665;28;20120;-86
2023/03/23 14:33:55;;;;;;;6.25;3.58;;;;;;;;;;5050289;28;20109;-86
2023/03/23 14:36:27;;;;;;;7.25;3.33;;;;;;;;;;5034162;28;20494;-86
2023/03/23 14:39:11;;;;;;;6.20;3.30;;;;;;;;;;5034773;28;20041;-88
2023/03/23 14:41:37;;;;;;;;;;;;;;;;;;5030950;28;20029;-86
2023/03/23 14:44:06;;;;;;;5.30;3.17;;;;;;;;;;5033538;28;20036;-86
2023/03/23 14:46:32;;;;;;;8.82;3.10;;;;;;;;;;5032930;28;20034;-87
2023/03/23 14:49:02;;;;;;;7.90;2.90;;;;;;;;;;5032858;28;20402;-86
2023/03/23 14:51:27;;;;;;;5.75;3.53;;;;;;;;;;5048625;28;20034;-86
2023/03/23 14:53:53;;;;;;;7.47;3.00;;;;;;;;;;5041997;28;20520;-86
2023/03/23 14:56:27;;;;;;;6.63;2.90;;;;;;;;;;5032655;28;20200;-86
2023/03/23 14:58:53;;;;;;;6.13;3.00;;;;;;;;;;5031716;28;20041;-85
2023/03/23 15:01:28;;;;;;;5.25;2.60;;;;;;;;;;5033701;28;20021;-85
2023/03/23 15:03:53;;;;;;;4.53;2.53;;;;;;;;;;5045221;28;20041;-85
2023/03/23 15:06:21;;;;;;;6.63;2.45;;;;;;;;;;5032852;28;20494;-82
2023/03/23 15:08:48;;;;;;;5.32;2.50;;;;;;;;;;5030973;28;20033;-86
2023/03/23 15:11:17;;;;;;;5.72;2.95;;;;;;;;;;5032468;28;20060;-85
2023/03/23 15:13:54;;;;;;;4.78;2.60;;;;;;;;;;5042609;28;20045;-87
2023/03/23 15:16:23;;;;;;;4.05;2.53;;;;;;;;;;5028609;28;20405;-86
2023/03/23 15:18:57;;;;;;;5.13;2.60;;;;;;;;;;5033517;28;20385;-86
2023/03/23 15:21:28;;;;;;;4.55;2.55;;;;;;;;;;5033558;28;20520;-87
2023/03/23 15:23:54;;;;;;;4.40;2.80;;;;;;;;;;5030211;28;20041;-85
2023/03/23 15:26:24;;;;;;;11.13;3.00;;;;;;;;;;5033770;28;20043;-85